Tamalco, Illinois
Current Conditions -  °F | °C
As of 10:35 AM on Wednesday 22 Oct 2014 (Local Time) from KENL Reporting Station
Clear Clear  
Wind Chill: 54°   Ceiling: Unl
Heat Index: 54°   Visibility: 10mi
Dew Point: 41°   Wind: 6mph
Humidity: 62%   Direction: 120°ESE
Pressure: 30.33"   Gusts: NA
Location:  38.7527°N, 89.3215°W
Report Text: KENL 221535Z AUTO 12005KT 10SM CLR 12/05 A3033 RMK AO2 T01200049
Loading
Personal Weather Stations






























Interactive Weather Map
Tropical Storm Tracking
New forecast layout! Learn more

10-Day Weather Forecast

Advertisements
Track Severe Weather on mobile